createdAt,value
2023-03-10T00:00:39.962Z,12.00
2023-03-10T00:03:07.525Z,12.00
2023-03-10T00:05:34.630Z,12.00
2023-03-10T00:08:01.576Z,12.00
2023-03-10T00:10:28.654Z,12.10
2023-03-10T00:12:55.640Z,12.10
2023-03-10T00:15:23.657Z,12.10
2023-03-10T00:17:50.712Z,12.00
2023-03-10T00:20:17.931Z,12.00
2023-03-10T00:22:44.921Z,12.00
2023-03-10T00:25:12.819Z,12.00
2023-03-10T00:27:39.714Z,12.00
2023-03-10T00:30:07.579Z,12.10
2023-03-10T00:32:36.098Z,12.10
2023-03-10T00:35:05.404Z,12.10
2023-03-10T00:37:32.326Z,12.10
2023-03-10T00:39:59.240Z,12.20
2023-03-10T00:42:27.420Z,12.20
2023-03-10T00:44:54.412Z,12.20
2023-03-10T00:47:22.971Z,12.10
2023-03-10T00:49:50.865Z,12.10
2023-03-10T00:52:18.030Z,12.10
2023-03-10T00:54:45.155Z,12.10
2023-03-10T00:57:12.084Z,12.10
2023-03-10T00:59:50.131Z,12.10
2023-03-10T01:02:19.631Z,12.10
2023-03-10T01:04:47.547Z,12.20
2023-03-10T01:07:14.577Z,12.20
2023-03-10T01:09:42.800Z,12.20
2023-03-10T01:12:09.850Z,12.30
2023-03-10T01:14:37.156Z,12.30
2023-03-10T01:17:05.426Z,12.40
2023-03-10T01:19:32.485Z,12.40
2023-03-10T01:22:01.504Z,12.40
2023-03-10T01:24:28.453Z,12.50
2023-03-10T01:26:55.441Z,12.50
2023-03-10T01:29:22.422Z,12.50
2023-03-10T01:31:49.417Z,12.60
2023-03-10T01:34:16.413Z,12.70
2023-03-10T01:36:43.429Z,12.70
2023-03-10T01:39:10.405Z,12.70
2023-03-10T01:41:41.310Z,12.70
2023-03-10T01:44:17.049Z,12.80
2023-03-10T01:46:50.034Z,12.80
2023-03-10T01:49:26.541Z,12.80
2023-03-10T01:52:00.151Z,12.90
2023-03-10T01:54:44.727Z,12.90
2023-03-10T01:57:13.496Z,13.00
2023-03-10T01:59:41.207Z,13.00
2023-03-10T02:02:09.482Z,13.10
2023-03-10T02:04:45.605Z,13.10
2023-03-10T02:07:14.239Z,13.10
2023-03-10T02:09:44.712Z,13.10
2023-03-10T02:12:15.044Z,13.10
2023-03-10T02:14:46.766Z,13.10
2023-03-10T02:17:19.513Z,13.20
2023-03-10T02:20:05.304Z,13.20
2023-03-10T02:22:32.903Z,13.20
2023-03-10T02:25:38.841Z,13.10
2023-03-10T02:28:06.801Z,13.10
2023-03-10T02:30:40.147Z,13.00
2023-03-10T02:33:13.953Z,13.00
2023-03-10T02:35:41.075Z,13.00
2023-03-10T02:38:12.527Z,13.00
2023-03-10T02:40:46.660Z,13.00
2023-03-10T02:43:20.480Z,13.00
2023-03-10T02:45:51.977Z,13.00
2023-03-10T02:48:28.184Z,13.10
2023-03-10T02:50:57.356Z,13.10
2023-03-10T02:53:26.822Z,13.00
2023-03-10T02:55:55.376Z,13.10
2023-03-10T02:58:26.414Z,13.10
2023-03-10T03:00:53.383Z,13.10
2023-03-10T03:03:22.252Z,13.10
2023-03-10T03:05:49.978Z,13.10
2023-03-10T03:08:19.012Z,13.10
2023-03-10T03:10:46.055Z,13.10
2023-03-10T03:13:13.736Z,13.10
2023-03-10T03:15:41.350Z,13.10
2023-03-10T03:18:09.473Z,13.10
2023-03-10T03:20:40.871Z,13.10
2023-03-10T03:23:08.918Z,13.00
2023-03-10T03:25:39.062Z,13.00
2023-03-10T03:28:08.133Z,13.10
2023-03-10T03:30:36.265Z,13.10
2023-03-10T03:33:06.060Z,13.10
2023-03-10T03:35:35.597Z,13.10
2023-03-10T03:38:04.117Z,13.20
2023-03-10T03:40:33.626Z,13.20
2023-03-10T03:43:02.183Z,13.30
2023-03-10T03:45:32.230Z,13.30
2023-03-10T03:48:00.556Z,13.30
2023-03-10T03:50:30.219Z,13.30
2023-03-10T03:53:03.406Z,13.30
2023-03-10T03:55:31.532Z,13.40
2023-03-10T03:57:59.255Z,13.40
2023-03-10T04:00:26.502Z,13.40
2023-03-10T04:03:04.445Z,13.40
2023-03-10T04:05:33.344Z,13.40
2023-03-10T04:08:01.233Z,13.40
2023-03-10T04:10:30.087Z,13.50
2023-03-10T04:12:57.573Z,13.40
2023-03-10T04:15:26.043Z,13.40
2023-03-10T04:17:53.262Z,13.40
2023-03-10T04:20:20.720Z,13.40
2023-03-10T04:22:50.217Z,13.40
2023-03-10T04:25:19.281Z,13.40
2023-03-10T04:27:46.892Z,13.40
2023-03-10T04:30:15.169Z,13.40
2023-03-10T04:32:48.736Z,13.40
2023-03-10T04:35:16.819Z,13.40
2023-03-10T04:37:44.942Z,13.40
2023-03-10T04:40:14.629Z,13.40
2023-03-10T04:42:42.282Z,13.40
2023-03-10T04:45:10.309Z,13.40
2023-03-10T04:47:38.314Z,13.40
2023-03-10T04:50:06.640Z,13.40
2023-03-10T04:52:35.062Z,13.40
2023-03-10T04:55:03.033Z,13.40
2023-03-10T04:57:30.005Z,13.40
2023-03-10T04:59:57.038Z,13.40
2023-03-10T05:02:24.102Z,13.40
2023-03-10T05:04:51.837Z,13.30
2023-03-10T05:07:21.412Z,13.30
2023-03-10T05:09:49.954Z,13.30
2023-03-10T05:12:17.179Z,13.20
2023-03-10T05:14:44.420Z,13.20
2023-03-10T05:17:11.920Z,13.20
2023-03-10T05:19:39.638Z,13.10
2023-03-10T05:22:08.033Z,13.10
2023-03-10T05:24:36.965Z,13.10
2023-03-10T05:27:04.102Z,13.00
2023-03-10T05:29:31.796Z,13.00
2023-03-10T05:32:11.458Z,13.00
2023-03-10T05:34:40.542Z,12.90
2023-03-10T05:37:07.480Z,12.90
2023-03-10T05:39:34.662Z,12.90
2023-03-10T05:42:06.230Z,12.80
2023-03-10T05:44:34.965Z,12.80
2023-03-10T05:47:04.840Z,12.80
2023-03-10T05:49:32.310Z,12.80
2023-03-10T05:51:59.683Z,12.80
2023-03-10T05:54:27.421Z,12.80
2023-03-10T05:56:54.479Z,12.80
2023-03-10T05:59:25.898Z,12.90
2023-03-10T06:01:53.990Z,12.90
2023-03-10T06:04:21.186Z,12.90
2023-03-10T06:06:48.999Z,12.90
2023-03-10T06:09:16.092Z,12.90
2023-03-10T06:11:43.076Z,12.90
2023-03-10T06:14:10.101Z,12.80
2023-03-10T06:16:37.055Z,12.80
2023-03-10T06:19:04.035Z,12.80
2023-03-10T06:21:30.964Z,12.80
2023-03-10T06:23:59.160Z,12.80
2023-03-10T06:26:26.101Z,12.80
2023-03-10T06:28:53.039Z,12.90
2023-03-10T06:31:24.528Z,12.90
2023-03-10T06:33:52.272Z,13.00
2023-03-10T06:36:20.304Z,13.10
2023-03-10T06:38:47.730Z,13.20
2023-03-10T06:41:16.764Z,13.30
2023-03-10T06:43:44.184Z,13.30
2023-03-10T06:46:12.523Z,13.20
2023-03-10T06:48:40.484Z,13.30
2023-03-10T06:51:09.767Z,13.30
2023-03-10T06:53:37.343Z,13.30
2023-03-10T06:56:05.961Z,13.40
2023-03-10T06:58:34.616Z,13.40
2023-03-10T07:01:01.958Z,13.40
2023-03-10T07:03:29.265Z,13.40
2023-03-10T07:05:59.900Z,13.40
2023-03-10T07:08:30.413Z,13.50
2023-03-10T07:10:58.227Z,13.50
2023-03-10T07:13:25.241Z,13.50
2023-03-10T07:15:52.160Z,13.60
2023-03-10T07:18:19.454Z,13.60
2023-03-10T07:20:48.176Z,13.60
2023-03-10T07:23:15.649Z,13.70
2023-03-10T07:25:42.636Z,13.70
2023-03-10T07:28:09.697Z,13.80
2023-03-10T07:30:38.925Z,13.80
2023-03-10T07:33:06.108Z,13.90
2023-03-10T07:35:35.525Z,14.00
2023-03-10T07:38:04.687Z,14.10
2023-03-10T07:40:31.764Z,14.10
2023-03-10T07:42:59.049Z,14.20
2023-03-10T07:45:28.169Z,14.40
2023-03-10T07:47:55.440Z,14.50
2023-03-10T07:50:22.451Z,14.70
2023-03-10T07:52:49.687Z,15.00
2023-03-10T07:55:17.116Z,15.20
2023-03-10T07:57:44.246Z,15.50
2023-03-10T08:00:11.842Z,15.90
2023-03-10T08:02:42.122Z,16.30
2023-03-10T08:05:10.640Z,16.90
2023-03-10T08:07:38.218Z,17.50
2023-03-10T08:10:06.061Z,17.80
2023-03-10T08:12:34.138Z,18.10
2023-03-10T08:15:01.190Z,18.50
2023-03-10T08:17:31.029Z,18.80
2023-03-10T08:19:58.732Z,19.10
2023-03-10T08:22:26.793Z,19.50
2023-03-10T08:24:54.398Z,20.10
2023-03-10T08:27:21.770Z,20.70
2023-03-10T08:29:48.720Z,21.40
2023-03-10T08:32:15.845Z,21.70
2023-03-10T08:34:44.252Z,21.90
2023-03-10T08:37:11.821Z,22.10
2023-03-10T08:39:38.993Z,22.30
2023-03-10T08:42:06.096Z,22.40
2023-03-10T08:44:33.155Z,22.50
2023-03-10T08:47:00.383Z,22.50
2023-03-10T08:49:27.451Z,22.20
2023-03-10T08:52:00.589Z,22.20
2023-03-10T08:54:28.556Z,22.10
2023-03-10T08:56:56.533Z,21.80
2023-03-10T08:59:23.494Z,21.50
2023-03-10T09:01:50.660Z,21.10
2023-03-10T09:04:17.927Z,20.70
2023-03-10T09:06:44.893Z,20.40
2023-03-10T09:09:12.509Z,20.10
2023-03-10T09:11:40.961Z,19.70
2023-03-10T09:14:10.565Z,19.30
2023-03-10T09:16:40.440Z,18.90
2023-03-10T09:19:07.763Z,18.50
2023-03-10T09:21:34.857Z,18.20
2023-03-10T09:24:04.638Z,18.00
2023-03-10T09:26:32.034Z,17.90
2023-03-10T09:29:01.080Z,17.90
2023-03-10T09:31:36.782Z,17.90
2023-03-10T09:34:04.609Z,18.10
2023-03-10T09:36:32.949Z,18.70
2023-03-10T09:39:00.811Z,20.00
2023-03-10T09:41:51.808Z,21.50
2023-03-10T09:44:43.554Z,23.60
2023-03-10T09:47:10.919Z,25.80
2023-03-10T09:50:07.106Z,26.90
2023-03-10T09:52:34.228Z,26.20
2023-03-10T09:55:06.517Z,25.30
2023-03-10T09:57:33.646Z,24.60
2023-03-10T10:00:11.082Z,24.60
2023-03-10T10:02:41.702Z,25.70
2023-03-10T10:05:34.943Z,27.30
2023-03-10T10:08:05.896Z,28.40
2023-03-10T10:10:36.595Z,28.90
2023-03-10T10:13:11.714Z,28.80
2023-03-10T10:15:39.788Z,29.60
2023-03-10T10:18:23.351Z,29.80
2023-03-10T10:21:00.397Z,29.90
2023-03-10T10:23:38.426Z,30.50
2023-03-10T10:26:15.472Z,31.40
2023-03-10T10:28:44.978Z,32.00
2023-03-10T10:31:14.358Z,32.30
2023-03-10T10:33:53.680Z,32.10
2023-03-10T10:36:22.457Z,32.20
2023-03-10T10:38:50.736Z,31.90
2023-03-10T10:41:35.598Z,31.80
2023-03-10T10:44:14.070Z,31.50
2023-03-10T10:46:50.881Z,31.30
2023-03-10T10:49:18.505Z,31.00
2023-03-10T10:51:55.704Z,30.80
2023-03-10T10:54:31.192Z,31.20
2023-03-10T10:56:59.114Z,31.30
2023-03-10T10:59:35.536Z,31.30
2023-03-10T11:02:04.412Z,31.50
2023-03-10T11:04:42.507Z,31.60
2023-03-10T11:07:11.358Z,31.70
2023-03-10T11:09:38.531Z,31.80
2023-03-10T11:12:24.338Z,31.70
2023-03-10T11:15:03.623Z,30.80
2023-03-10T11:17:33.819Z,29.00
2023-03-10T11:20:06.910Z,28.70
2023-03-10T11:22:34.005Z,27.80
2023-03-10T11:25:19.576Z,26.10
2023-03-10T11:27:49.427Z,24.60
2023-03-10T11:30:20.013Z,23.70
2023-03-10T11:32:59.390Z,24.20
2023-03-10T11:35:32.474Z,24.20
2023-03-10T11:38:10.608Z,23.50
2023-03-10T11:40:49.716Z,23.00
2023-03-10T11:43:19.451Z,22.90
2023-03-10T11:45:52.932Z,23.20
2023-03-10T11:48:25.978Z,23.10
2023-03-10T11:50:54.934Z,23.70
2023-03-10T11:53:27.925Z,24.10
2023-03-10T11:55:55.886Z,23.70
2023-03-10T11:58:46.049Z,22.90
2023-03-10T12:01:25.264Z,22.10
2023-03-10T12:04:18.361Z,21.50
2023-03-10T12:06:48.561Z,21.10
2023-03-10T12:09:18.258Z,22.10
2023-03-10T12:11:45.334Z,23.50
2023-03-10T12:14:13.798Z,25.40
2023-03-10T12:16:43.190Z,26.70
2023-03-10T12:19:10.200Z,27.20
2023-03-10T12:21:37.100Z,28.30
2023-03-10T12:24:07.538Z,28.30
2023-03-10T12:26:37.449Z,28.30
2023-03-10T12:29:24.605Z,28.00
2023-03-10T12:31:52.679Z,27.80
2023-03-10T12:34:23.468Z,27.90
2023-03-10T12:36:54.580Z,27.80
2023-03-10T12:39:30.284Z,28.10
2023-03-10T12:42:01.564Z,27.70
2023-03-10T12:44:31.421Z,26.50
2023-03-10T12:47:14.035Z,25.40
2023-03-10T12:49:40.871Z,24.60
2023-03-10T12:52:07.772Z,24.30
2023-03-10T12:54:53.049Z,24.20
2023-03-10T12:57:38.670Z,23.80
2023-03-10T13:00:24.506Z,23.70
2023-03-10T13:02:56.853Z,25.20
2023-03-10T13:05:25.168Z,26.20
2023-03-10T13:07:54.385Z,25.30
2023-03-10T13:10:25.287Z,25.30
2023-03-10T13:12:58.777Z,25.00
2023-03-10T13:15:27.018Z,25.60
2023-03-10T13:17:56.850Z,26.60
2023-03-10T13:20:24.303Z,26.60
2023-03-10T13:22:55.532Z,27.20
2023-03-10T13:25:22.407Z,26.10
2023-03-10T13:27:49.334Z,25.40
2023-03-10T13:30:16.462Z,26.00
2023-03-10T13:32:51.701Z,26.20
2023-03-10T13:35:24.481Z,25.80
2023-03-10T13:38:16.215Z,25.90
2023-03-10T13:40:47.189Z,26.20
2023-03-10T13:43:29.717Z,25.30
2023-03-10T13:45:57.541Z,24.10
2023-03-10T13:48:26.130Z,24.00
2023-03-10T13:51:03.989Z,24.10
2023-03-10T13:53:31.498Z,24.60
2023-03-10T13:55:58.616Z,24.50
2023-03-10T13:58:25.734Z,24.20
2023-03-10T14:00:56.329Z,23.80
2023-03-10T14:03:23.303Z,23.50
2023-03-10T14:05:50.125Z,23.20
2023-03-10T14:08:32.449Z,22.80
2023-03-10T14:11:18.226Z,22.30
2023-03-10T14:13:45.195Z,21.90
2023-03-10T14:16:12.733Z,21.50
2023-03-10T14:18:45.962Z,21.40
2023-03-10T14:21:26.254Z,21.40
2023-03-10T14:23:53.659Z,21.40
2023-03-10T14:26:20.556Z,22.00
2023-03-10T14:28:47.450Z,22.50
2023-03-10T14:31:21.823Z,22.50
2023-03-10T14:33:49.160Z,22.50
2023-03-10T14:36:16.081Z,23.10
2023-03-10T14:38:47.075Z,23.90
2023-03-10T14:41:17.508Z,24.70
2023-03-10T14:43:45.097Z,25.00
2023-03-10T14:46:13.109Z,25.00
2023-03-10T14:48:41.982Z,25.10
2023-03-10T14:51:14.532Z,25.30
2023-03-10T14:53:48.108Z,25.40
2023-03-10T14:56:17.515Z,25.40
2023-03-10T14:58:49.318Z,25.40
2023-03-10T15:01:18.070Z,25.50
2023-03-10T15:03:45.619Z,25.60
2023-03-10T15:06:13.359Z,25.80
2023-03-10T15:08:41.029Z,25.70
2023-03-10T15:11:09.048Z,25.70
2023-03-10T15:13:37.997Z,25.40
2023-03-10T15:16:05.409Z,25.10
2023-03-10T15:18:32.410Z,24.90
2023-03-10T15:21:00.475Z,24.80
2023-03-10T15:23:29.800Z,24.70
2023-03-10T15:25:58.079Z,24.60
2023-03-10T15:28:25.620Z,24.40
2023-03-10T15:30:56.106Z,24.10
2023-03-10T15:33:23.084Z,24.00
2023-03-10T15:35:50.107Z,23.60
2023-03-10T15:38:17.062Z,23.30
2023-03-10T15:40:45.053Z,23.10
2023-03-10T15:43:15.426Z,23.00
2023-03-10T15:45:46.494Z,23.00
2023-03-10T15:48:19.628Z,22.80
2023-03-10T15:50:47.511Z,22.40
2023-03-10T15:53:15.492Z,21.90
2023-03-10T15:55:46.496Z,21.50
2023-03-10T15:58:18.081Z,21.10
2023-03-10T16:00:48.391Z,20.60
2023-03-10T16:03:18.156Z,20.20
2023-03-10T16:05:51.311Z,19.80
2023-03-10T16:08:19.320Z,19.50
2023-03-10T16:10:53.527Z,19.30
2023-03-10T16:13:21.185Z,19.10
2023-03-10T16:15:48.026Z,19.00
2023-03-10T16:18:15.836Z,18.90
2023-03-10T16:20:43.014Z,18.70
2023-03-10T16:23:10.094Z,18.60
2023-03-10T16:25:37.129Z,18.50
2023-03-10T16:28:04.358Z,18.40
2023-03-10T16:30:31.347Z,18.30
2023-03-10T16:33:01.594Z,18.00
2023-03-10T16:35:30.154Z,17.90
2023-03-10T16:38:00.515Z,17.80
2023-03-10T16:40:27.493Z,17.70
2023-03-10T16:42:54.396Z,17.60
2023-03-10T16:45:21.456Z,17.50
2023-03-10T16:47:49.274Z,17.40
2023-03-10T16:50:16.662Z,17.30
2023-03-10T16:52:44.118Z,17.20
2023-03-10T16:55:18.883Z,17.10
2023-03-10T16:57:46.210Z,17.00
2023-03-10T17:00:15.042Z,16.90
2023-03-10T17:02:43.019Z,16.90
2023-03-10T17:05:10.352Z,16.80
2023-03-10T17:07:53.352Z,16.70
2023-03-10T17:10:22.478Z,16.60
2023-03-10T17:12:49.497Z,16.60
2023-03-10T17:15:16.527Z,16.50
2023-03-10T17:17:43.502Z,16.40
2023-03-10T17:20:10.987Z,16.30
2023-03-10T17:22:39.073Z,16.20
2023-03-10T17:25:06.579Z,16.20
2023-03-10T17:27:33.501Z,16.10
2023-03-10T17:30:00.664Z,16.10
2023-03-10T17:32:28.423Z,16.00
2023-03-10T17:34:55.530Z,15.90
2023-03-10T17:37:22.611Z,15.90
2023-03-10T17:39:49.646Z,15.80
2023-03-10T17:42:16.728Z,15.70
2023-03-10T17:44:43.667Z,15.70
2023-03-10T17:47:12.311Z,15.60
2023-03-10T17:49:41.047Z,15.60
2023-03-10T17:52:08.302Z,15.50
2023-03-10T17:54:35.358Z,15.50
2023-03-10T17:57:02.445Z,15.40
2023-03-10T17:59:31.254Z,15.40
2023-03-10T18:01:58.931Z,15.40
2023-03-10T18:04:29.951Z,15.40
2023-03-10T18:06:57.439Z,15.50
2023-03-10T18:09:24.342Z,15.40
2023-03-10T18:11:51.308Z,15.30
2023-03-10T18:14:18.289Z,15.30
2023-03-10T18:16:45.268Z,15.20
2023-03-10T18:19:12.601Z,15.10
2023-03-10T18:21:39.757Z,15.10
2023-03-10T18:24:08.351Z,15.00
2023-03-10T18:26:37.001Z,15.00
2023-03-10T18:29:05.036Z,14.90
2023-03-10T18:31:34.479Z,14.90
2023-03-10T18:34:01.972Z,14.80
2023-03-10T18:36:30.087Z,14.80
2023-03-10T18:38:57.621Z,14.80
2023-03-10T18:41:27.435Z,14.70
2023-03-10T18:43:54.377Z,14.70
2023-03-10T18:46:22.505Z,14.60
2023-03-10T18:48:55.431Z,14.60
2023-03-10T18:51:27.802Z,14.60
2023-03-10T18:53:55.322Z,14.60
2023-03-10T18:56:25.762Z,14.50
2023-03-10T18:58:53.682Z,14.50
2023-03-10T19:01:20.756Z,14.40
2023-03-10T19:03:47.762Z,14.40
2023-03-10T19:06:14.798Z,14.30
2023-03-10T19:08:41.927Z,14.30
2023-03-10T19:11:09.274Z,14.20
2023-03-10T19:13:40.421Z,14.20
2023-03-10T19:16:09.829Z,14.10
2023-03-10T19:18:37.323Z,14.10
2023-03-10T19:21:04.689Z,14.00
2023-03-10T19:23:33.979Z,14.00
2023-03-10T19:26:01.063Z,14.00
2023-03-10T19:28:38.327Z,13.90
2023-03-10T19:31:10.683Z,13.90
2023-03-10T19:33:39.851Z,13.90
2023-03-10T19:36:11.806Z,13.80
2023-03-10T19:38:39.650Z,13.80
2023-03-10T19:41:11.150Z,13.80
2023-03-10T19:43:38.161Z,13.70
2023-03-10T19:46:07.985Z,13.70
2023-03-10T19:48:35.692Z,13.70
2023-03-10T19:51:05.601Z,13.70
2023-03-10T19:53:33.718Z,13.70
2023-03-10T19:56:07.857Z,13.60
2023-03-10T19:58:35.004Z,13.60
2023-03-10T20:01:02.274Z,13.60
2023-03-10T20:03:31.905Z,13.50
2023-03-10T20:05:59.079Z,13.50
2023-03-10T20:08:26.252Z,13.50
2023-03-10T20:10:53.324Z,13.40
2023-03-10T20:13:21.326Z,13.40
2023-03-10T20:15:48.750Z,13.40
2023-03-10T20:18:18.588Z,13.40
2023-03-10T20:20:45.796Z,13.30
2023-03-10T20:23:12.919Z,13.30
2023-03-10T20:25:41.310Z,13.30
2023-03-10T20:28:09.332Z,13.30
2023-03-10T20:30:37.498Z,13.20
2023-03-10T20:33:04.542Z,13.20
2023-03-10T20:35:33.737Z,13.20
2023-03-10T20:38:02.073Z,13.20
2023-03-10T20:40:29.508Z,13.20
2023-03-10T20:42:59.745Z,13.20
2023-03-10T20:45:27.362Z,13.20
2023-03-10T20:47:54.970Z,13.10
2023-03-10T20:50:22.005Z,13.10
2023-03-10T20:52:49.875Z,13.10
2023-03-10T20:55:23.371Z,13.20
2023-03-10T20:57:52.278Z,13.30
2023-03-10T21:00:22.305Z,13.50
2023-03-10T21:02:52.653Z,13.70
2023-03-10T21:05:21.074Z,13.80
2023-03-10T21:07:48.224Z,13.90
2023-03-10T21:10:17.038Z,13.90
2023-03-10T21:12:44.696Z,13.90
2023-03-10T21:15:13.997Z,13.90
2023-03-10T21:17:41.534Z,13.90
2023-03-10T21:20:09.192Z,13.80
2023-03-10T21:22:38.377Z,13.80
2023-03-10T21:25:07.940Z,13.90
2023-03-10T21:27:36.381Z,13.90
2023-03-10T21:30:07.978Z,13.90
2023-03-10T21:32:35.123Z,13.90
2023-03-10T21:35:02.551Z,13.90
2023-03-10T21:37:29.969Z,14.00
2023-03-10T21:39:58.011Z,14.10
2023-03-10T21:42:25.003Z,14.20
2023-03-10T21:44:54.546Z,14.20
2023-03-10T21:47:21.537Z,14.20
2023-03-10T21:49:48.552Z,14.20
2023-03-10T21:52:15.559Z,14.20
2023-03-10T21:54:43.506Z,14.20
2023-03-10T21:57:10.716Z,14.10
2023-03-10T21:59:38.630Z,14.10
2023-03-10T22:02:05.694Z,14.00
2023-03-10T22:04:33.121Z,13.90
2023-03-10T22:07:00.783Z,13.80
2023-03-10T22:09:28.485Z,13.80
2023-03-10T22:11:55.502Z,13.80
2023-03-10T22:14:24.430Z,13.80
2023-03-10T22:16:51.871Z,13.80
2023-03-10T22:19:19.719Z,13.80
2023-03-10T22:21:46.601Z,13.80
2023-03-10T22:24:13.981Z,13.70
2023-03-10T22:26:40.977Z,13.70
2023-03-10T22:29:07.951Z,13.60
2023-03-10T22:31:35.277Z,13.60
2023-03-10T22:34:02.201Z,13.50
2023-03-10T22:36:29.125Z,13.50
2023-03-10T22:38:56.158Z,13.40
2023-03-10T22:41:23.286Z,13.40
2023-03-10T22:43:51.731Z,13.40
2023-03-10T22:46:18.755Z,13.30
2023-03-10T22:48:45.941Z,13.40
2023-03-10T22:51:16.746Z,13.30
2023-03-10T22:53:47.068Z,13.40
2023-03-10T22:56:14.101Z,13.30
2023-03-10T22:58:41.192Z,13.30
2023-03-10T23:01:08.359Z,13.20
2023-03-10T23:03:36.040Z,13.10
2023-03-10T23:06:06.630Z,13.00
2023-03-10T23:08:37.587Z,13.00
2023-03-10T23:11:12.901Z,12.90
2023-03-10T23:13:40.255Z,12.80
2023-03-10T23:16:07.966Z,12.70
2023-03-10T23:18:35.021Z,12.70
2023-03-10T23:21:02.717Z,12.70
2023-03-10T23:23:29.728Z,12.70
2023-03-10T23:25:56.766Z,12.70
2023-03-10T23:28:24.023Z,12.70
2023-03-10T23:30:51.341Z,12.70
2023-03-10T23:33:21.933Z,12.70
2023-03-10T23:35:55.279Z,12.80
2023-03-10T23:38:23.985Z,12.90
2023-03-10T23:40:51.738Z,13.00
2023-03-10T23:43:18.724Z,13.00
2023-03-10T23:45:46.034Z,13.00
2023-03-10T23:48:16.172Z,13.00
2023-03-10T23:50:44.751Z,13.00
2023-03-10T23:53:13.577Z,13.00
2023-03-10T23:55:43.194Z,13.00
2023-03-10T23:58:11.036Z,13.10
